createdAt,value
2022-11-08T00:24:17.705Z,86.87
2022-11-08T00:54:20.524Z,87.27
2022-11-08T01:24:24.012Z,87.97
2022-11-08T01:54:26.857Z,88.59
2022-11-08T02:24:30.300Z,87.95
2022-11-08T02:54:33.496Z,87.94
2022-11-08T03:24:38.746Z,88.28
2022-11-08T03:54:42.457Z,89.28
2022-11-08T04:24:45.901Z,90.37
2022-11-08T04:54:48.677Z,90.28
2022-11-08T05:24:51.990Z,90.58
2022-11-08T05:54:54.911Z,89.83
2022-11-08T06:24:58.924Z,90.50
2022-11-08T06:55:01.740Z,92.03
2022-11-08T07:25:05.762Z,93.52
2022-11-08T07:55:08.694Z,93.50
2022-11-08T08:25:13.243Z,91.89
2022-11-08T08:55:16.095Z,90.56
2022-11-08T09:25:19.061Z,88.07
2022-11-08T09:55:22.229Z,87.01
2022-11-08T10:25:26.732Z,85.67
2022-11-08T10:55:30.068Z,84.14
2022-11-08T11:25:33.212Z,82.80
2022-11-08T11:55:36.636Z,81.98
2022-11-08T12:25:39.888Z,80.52
2022-11-08T12:55:42.740Z,80.34
2022-11-08T13:25:46.505Z,79.89
2022-11-08T13:55:49.395Z,80.22
2022-11-08T14:25:52.972Z,81.02
2022-11-08T14:55:56.304Z,81.46
2022-11-08T15:25:59.816Z,81.82
2022-11-08T15:56:03.204Z,82.40
2022-11-08T16:26:06.822Z,82.75
2022-11-08T16:56:09.909Z,82.75
2022-11-08T17:26:13.448Z,84.07
2022-11-08T17:56:16.293Z,84.73
2022-11-08T18:26:21.011Z,85.89
2022-11-08T18:56:24.152Z,86.08
2022-11-08T19:26:28.386Z,85.95
2022-11-08T20:26:56.319Z,86.33
2022-11-08T20:56:59.136Z,86.52
2022-11-08T21:27:02.636Z,87.21
2022-11-08T21:57:05.400Z,87.60
2022-11-08T22:27:09.129Z,87.95
2022-11-08T22:57:11.863Z,87.97
2022-11-08T23:27:15.241Z,87.91
2022-11-08T23:57:18.035Z,88.94
